sensor_id;sensor_type;location;lat;lon;timestamp;pressure;altitude;pressure_sealevel;temperature;humidity
19783;BME280;10051;40.294;-3.754;2023-09-18T00:02:08;94207.34;;;17.64;90.66
19783;BME280;10051;40.294;-3.754;2023-09-18T00:04:34;94199.22;;;17.60;91.00
19783;BME280;10051;40.294;-3.754;2023-09-18T00:07:00;94204.03;;;17.67;90.59
19783;BME280;10051;40.294;-3.754;2023-09-18T00:09:25;94191.50;;;17.67;90.04
19783;BME280;10051;40.294;-3.754;2023-09-18T00:11:51;94172.88;;;17.46;90.71
19783;BME280;10051;40.294;-3.754;2023-09-18T00:14:18;94222.09;;;17.82;89.63
19783;BME280;10051;40.294;-3.754;2023-09-18T00:16:44;94210.44;;;17.66;90.11
19783;BME280;10051;40.294;-3.754;2023-09-18T00:19:09;94222.47;;;17.72;90.17
19783;BME280;10051;40.294;-3.754;2023-09-18T00:21:36;94124.50;;;16.93;90.59
19783;BME280;10051;40.294;-3.754;2023-09-18T00:24:02;94203.06;;;17.42;91.60
19783;BME280;10051;40.294;-3.754;2023-09-18T00:26:28;94217.56;;;17.53;91.36
19783;BME280;10051;40.294;-3.754;2023-09-18T00:28:54;94164.22;;;17.28;91.53
19783;BME280;10051;40.294;-3.754;2023-09-18T00:31:19;94184.00;;;17.39;90.93
19783;BME280;10051;40.294;-3.754;2023-09-18T00:33:45;94205.44;;;17.43;91.42
19783;BME280;10051;40.294;-3.754;2023-09-18T00:36:11;94213.56;;;17.38;91.46
19783;BME280;10051;40.294;-3.754;2023-09-18T00:38:36;94202.56;;;17.18;91.96
19783;BME280;10051;40.294;-3.754;2023-09-18T00:41:02;94206.41;;;17.30;92.15
19783;BME280;10051;40.294;-3.754;2023-09-18T00:43:28;94138.75;;;16.88;92.07
19783;BME280;10051;40.294;-3.754;2023-09-18T00:45:53;94179.78;;;17.08;92.51
19783;BME280;10051;40.294;-3.754;2023-09-18T00:48:22;94225.03;;;17.30;93.33
19783;BME280;10051;40.294;-3.754;2023-09-18T00:50:48;94223.41;;;17.37;92.67
19783;BME280;10051;40.294;-3.754;2023-09-18T00:53:17;94177.31;;;17.03;92.91
19783;BME280;10051;40.294;-3.754;2023-09-18T00:55:45;94227.03;;;17.33;92.91
19783;BME280;10051;40.294;-3.754;2023-09-18T00:58:11;94204.47;;;17.09;94.03
19783;BME280;10051;40.294;-3.754;2023-09-18T01:00:37;94204.13;;;17.19;93.73
19783;BME280;10051;40.294;-3.754;2023-09-18T01:03:04;94212.47;;;17.39;92.42
19783;BME280;10051;40.294;-3.754;2023-09-18T01:05:33;94233.34;;;17.49;92.14
19783;BME280;10051;40.294;-3.754;2023-09-18T01:07:59;94237.22;;;17.61;91.20
19783;BME280;10051;40.294;-3.754;2023-09-18T01:10:29;94137.97;;;16.88;91.26
19783;BME280;10051;40.294;-3.754;2023-09-18T01:13:08;94170.38;;;17.20;90.91
19783;BME280;10051;40.294;-3.754;2023-09-18T01:15:52;94165.25;;;17.06;91.28
19783;BME280;10051;40.294;-3.754;2023-09-18T01:18:19;94210.91;;;17.38;91.63
19783;BME280;10051;40.294;-3.754;2023-09-18T01:20:45;94233.81;;;17.51;91.65
19783;BME280;10051;40.294;-3.754;2023-09-18T01:23:11;94174.94;;;17.11;92.03
19783;BME280;10051;40.294;-3.754;2023-09-18T01:25:37;94224.22;;;17.38;92.77
19783;BME280;10051;40.294;-3.754;2023-09-18T01:28:03;94228.44;;;17.39;93.11
19783;BME280;10051;40.294;-3.754;2023-09-18T01:30:29;94223.63;;;17.23;94.11
19783;BME280;10051;40.294;-3.754;2023-09-18T01:32:56;94201.06;;;17.00;94.71
19783;BME280;10051;40.294;-3.754;2023-09-18T01:35:23;94158.66;;;16.73;94.96
19783;BME280;10051;40.294;-3.754;2023-09-18T01:37:58;94209.59;;;17.14;95.32
19783;BME280;10051;40.294;-3.754;2023-09-18T01:40:28;94109.34;;;16.55;94.82
19783;BME280;10051;40.294;-3.754;2023-09-18T01:42:54;94207.41;;;17.16;95.30
19783;BME280;10051;40.294;-3.754;2023-09-18T01:45:19;94190.53;;;17.12;95.14
19783;BME280;10051;40.294;-3.754;2023-09-18T01:47:46;94167.78;;;16.93;94.97
19783;BME280;10051;40.294;-3.754;2023-09-18T01:50:11;94176.38;;;16.90;95.14
19783;BME280;10051;40.294;-3.754;2023-09-18T01:52:38;94188.91;;;16.99;95.77
19783;BME280;10051;40.294;-3.754;2023-09-18T01:55:04;94133.56;;;16.53;95.95
19783;BME280;10051;40.294;-3.754;2023-09-18T01:57:30;94139.94;;;16.61;96.32
19783;BME280;10051;40.294;-3.754;2023-09-18T01:59:56;94184.03;;;16.92;96.23
19783;BME280;10051;40.294;-3.754;2023-09-18T02:02:21;94139.59;;;16.62;96.32
19783;BME280;10051;40.294;-3.754;2023-09-18T02:04:49;94138.66;;;16.67;96.17
19783;BME280;10051;40.294;-3.754;2023-09-18T02:07:14;94133.50;;;16.71;95.70
19783;BME280;10051;40.294;-3.754;2023-09-18T02:09:40;94197.00;;;16.85;96.96
19783;BME280;10051;40.294;-3.754;2023-09-18T02:12:06;94193.28;;;16.77;97.81
19783;BME280;10051;40.294;-3.754;2023-09-18T02:14:32;94160.72;;;16.50;98.32
19783;BME280;10051;40.294;-3.754;2023-09-18T02:16:59;94174.75;;;16.59;98.53
19783;BME280;10051;40.294;-3.754;2023-09-18T02:19:25;94164.63;;;16.53;97.87
19783;BME280;10051;40.294;-3.754;2023-09-18T02:21:51;94156.84;;;16.39;98.43
19783;BME280;10051;40.294;-3.754;2023-09-18T02:24:17;94176.47;;;16.64;98.20
19783;BME280;10051;40.294;-3.754;2023-09-18T02:26:42;94100.38;;;16.20;98.29
19783;BME280;10051;40.294;-3.754;2023-09-18T02:29:09;94158.94;;;16.72;97.40
19783;BME280;10051;40.294;-3.754;2023-09-18T02:31:39;94138.22;;;16.56;97.67
19783;BME280;10051;40.294;-3.754;2023-09-18T02:34:05;94133.56;;;16.53;97.92
19783;BME280;10051;40.294;-3.754;2023-09-18T02:36:33;94156.78;;;16.56;98.36
19783;BME280;10051;40.294;-3.754;2023-09-18T02:38:58;94182.34;;;16.78;97.91
19783;BME280;10051;40.294;-3.754;2023-09-18T02:41:24;94147.47;;;16.50;97.77
19783;BME280;10051;40.294;-3.754;2023-09-18T02:43:49;94198.44;;;16.82;98.16
19783;BME280;10051;40.294;-3.754;2023-09-18T02:46:15;94166.75;;;16.77;97.96
19783;BME280;10051;40.294;-3.754;2023-09-18T02:48:43;94193.41;;;16.89;96.83
19783;BME280;10051;40.294;-3.754;2023-09-18T02:51:08;94133.56;;;16.53;97.41
19783;BME280;10051;40.294;-3.754;2023-09-18T02:53:34;94186.25;;;16.81;97.42
19783;BME280;10051;40.294;-3.754;2023-09-18T02:56:00;94175.50;;;16.69;98.02
19783;BME280;10051;40.294;-3.754;2023-09-18T02:58:26;94144.81;;;16.50;98.03
19783;BME280;10051;40.294;-3.754;2023-09-18T03:00:55;94190.63;;;16.77;97.18
19783;BME280;10051;40.294;-3.754;2023-09-18T03:03:22;94167.94;;;16.41;98.65
19783;BME280;10051;40.294;-3.754;2023-09-18T03:05:48;94144.88;;;15.97;100.00
19783;BME280;10051;40.294;-3.754;2023-09-18T03:08:14;94138.59;;;15.75;100.00
19783;BME280;10051;40.294;-3.754;2023-09-18T03:10:42;94194.16;;;15.98;100.00
19783;BME280;10051;40.294;-3.754;2023-09-18T03:13:10;94199.63;;;16.02;100.00
19783;BME280;10051;40.294;-3.754;2023-09-18T03:15:36;94185.59;;;16.01;100.00
19783;BME280;10051;40.294;-3.754;2023-09-18T03:18:03;94195.09;;;16.02;100.00
19783;BME280;10051;40.294;-3.754;2023-09-18T03:20:30;94182.28;;;15.96;100.00
19783;BME280;10051;40.294;-3.754;2023-09-18T03:23:00;94163.28;;;16.02;100.00
19783;BME280;10051;40.294;-3.754;2023-09-18T03:25:26;94196.03;;;16.33;100.00
19783;BME280;10051;40.294;-3.754;2023-09-18T03:27:54;94179.63;;;16.40;100.00
19783;BME280;10051;40.294;-3.754;2023-09-18T03:30:21;94157.31;;;16.41;100.00
19783;BME280;10051;40.294;-3.754;2023-09-18T03:32:49;94175.84;;;16.58;99.22
19783;BME280;10051;40.294;-3.754;2023-09-18T03:35:14;94184.25;;;16.60;99.29
19783;BME280;10051;40.294;-3.754;2023-09-18T03:37:51;94211.56;;;16.70;99.36
19783;BME280;10051;40.294;-3.754;2023-09-18T03:40:18;94201.56;;;16.84;98.44
19783;BME280;10051;40.294;-3.754;2023-09-18T03:42:44;94205.94;;;16.80;98.18
19783;BME280;10051;40.294;-3.754;2023-09-18T03:45:10;94197.41;;;16.57;99.38
19783;BME280;10051;40.294;-3.754;2023-09-18T03:47:37;94179.34;;;16.24;100.00
19783;BME280;10051;40.294;-3.754;2023-09-18T03:50:10;94172.94;;;16.16;100.00
19783;BME280;10051;40.294;-3.754;2023-09-18T03:52:38;94087.00;;;15.64;100.00
19783;BME280;10051;40.294;-3.754;2023-09-18T03:55:04;94221.44;;;16.52;99.98
19783;BME280;10051;40.294;-3.754;2023-09-18T03:57:30;94177.31;;;16.29;100.00
19783;BME280;10051;40.294;-3.754;2023-09-18T03:59:56;94171.81;;;16.43;98.61
19783;BME280;10051;40.294;-3.754;2023-09-18T04:02:24;94219.25;;;16.71;98.84
19783;BME280;10051;40.294;-3.754;2023-09-18T04:04:50;94168.22;;;16.48;99.09
19783;BME280;10051;40.294;-3.754;2023-09-18T04:07:18;94178.34;;;16.55;99.81
19783;BME280;10051;40.294;-3.754;2023-09-18T04:09:45;94217.19;;;16.77;99.62
19783;BME280;10051;40.294;-3.754;2023-09-18T04:12:11;94210.91;;;16.82;99.38
19783;BME280;10051;40.294;-3.754;2023-09-18T04:14:37;94095.91;;;16.03;98.16
19783;BME280;10051;40.294;-3.754;2023-09-18T04:17:02;94184.41;;;16.73;97.00
19783;BME280;10051;40.294;-3.754;2023-09-18T04:19:28;94163.50;;;16.62;97.56
19783;BME280;10051;40.294;-3.754;2023-09-18T04:21:54;94221.06;;;16.97;98.00
19783;BME280;10051;40.294;-3.754;2023-09-18T04:24:20;94218.38;;;17.06;96.16
19783;BME280;10051;40.294;-3.754;2023-09-18T04:26:45;94226.81;;;17.08;95.56
19783;BME280;10051;40.294;-3.754;2023-09-18T04:29:11;94207.63;;;17.02;94.76
19783;BME280;10051;40.294;-3.754;2023-09-18T04:31:37;94177.03;;;16.78;94.76
19783;BME280;10051;40.294;-3.754;2023-09-18T04:34:03;94176.25;;;16.78;95.24
19783;BME280;10051;40.294;-3.754;2023-09-18T04:36:29;94175.97;;;16.71;95.23
19783;BME280;10051;40.294;-3.754;2023-09-18T04:38:55;94181.56;;;16.78;94.22
19783;BME280;10051;40.294;-3.754;2023-09-18T04:41:20;94209.94;;;17.04;94.33
19783;BME280;10051;40.294;-3.754;2023-09-18T04:43:46;94229.00;;;17.06;95.05
19783;BME280;10051;40.294;-3.754;2023-09-18T04:46:12;94154.78;;;16.53;94.69
19783;BME280;10051;40.294;-3.754;2023-09-18T04:48:38;94208.72;;;16.84;95.65
19783;BME280;10051;40.294;-3.754;2023-09-18T04:51:04;94234.47;;;17.01;96.60
19783;BME280;10051;40.294;-3.754;2023-09-18T04:53:30;94207.50;;;16.81;97.46
19783;BME280;10051;40.294;-3.754;2023-09-18T04:55:56;94238.06;;;17.05;96.97
19783;BME280;10051;40.294;-3.754;2023-09-18T04:58:22;94229.00;;;17.06;96.40
19783;BME280;10051;40.294;-3.754;2023-09-18T05:00:57;94241.78;;;17.21;95.96
19783;BME280;10051;40.294;-3.754;2023-09-18T05:03:23;94237.84;;;17.28;95.28
19783;BME280;10051;40.294;-3.754;2023-09-18T05:05:49;94236.97;;;17.15;95.40
19783;BME280;10051;40.294;-3.754;2023-09-18T05:08:15;94235.53;;;17.17;95.22
19783;BME280;10051;40.294;-3.754;2023-09-18T05:10:41;94242.28;;;17.15;95.48
19783;BME280;10051;40.294;-3.754;2023-09-18T05:13:07;94244.78;;;17.11;95.65
19783;BME280;10051;40.294;-3.754;2023-09-18T05:15:33;94214.19;;;16.87;96.39
19783;BME280;10051;40.294;-3.754;2023-09-18T05:17:59;94246.19;;;17.08;96.91
19783;BME280;10051;40.294;-3.754;2023-09-18T05:20:27;94249.94;;;17.07;96.86
19783;BME280;10051;40.294;-3.754;2023-09-18T05:22:54;94193.50;;;16.54;96.79
19783;BME280;10051;40.294;-3.754;2023-09-18T05:25:20;94254.34;;;16.94;96.77
19783;BME280;10051;40.294;-3.754;2023-09-18T05:27:51;94256.84;;;17.00;95.47
19783;BME280;10051;40.294;-3.754;2023-09-18T05:30:29;94196.28;;;16.67;95.60
19783;BME280;10051;40.294;-3.754;2023-09-18T05:32:58;94219.50;;;16.78;96.97
19783;BME280;10051;40.294;-3.754;2023-09-18T05:35:50;94244.81;;;16.93;97.07
19783;BME280;10051;40.294;-3.754;2023-09-18T05:38:16;94262.78;;;16.97;97.22
19783;BME280;10051;40.294;-3.754;2023-09-18T05:40:43;94269.31;;;17.08;96.99
19783;BME280;10051;40.294;-3.754;2023-09-18T05:43:10;94241.84;;;16.86;96.71
19783;BME280;10051;40.294;-3.754;2023-09-18T05:45:36;94261.22;;;16.95;97.58
19783;BME280;10051;40.294;-3.754;2023-09-18T05:48:02;94228.44;;;16.74;97.49
19783;BME280;10051;40.294;-3.754;2023-09-18T05:50:31;94243.41;;;16.87;97.62
19783;BME280;10051;40.294;-3.754;2023-09-18T05:52:58;94226.53;;;16.83;97.18
19783;BME280;10051;40.294;-3.754;2023-09-18T05:55:26;94243.09;;;16.98;96.67
19783;BME280;10051;40.294;-3.754;2023-09-18T05:57:53;94278.50;;;17.19;97.12
19783;BME280;10051;40.294;-3.754;2023-09-18T06:00:19;94255.44;;;16.93;97.28
19783;BME280;10051;40.294;-3.754;2023-09-18T06:02:45;94272.91;;;17.12;96.77
19783;BME280;10051;40.294;-3.754;2023-09-18T06:05:10;94282.88;;;17.15;96.02
19783;BME280;10051;40.294;-3.754;2023-09-18T06:07:41;94283.06;;;17.10;95.71
19783;BME280;10051;40.294;-3.754;2023-09-18T06:10:07;94248.09;;;16.82;95.15
19783;BME280;10051;40.294;-3.754;2023-09-18T06:12:33;94279.94;;;17.08;95.24
19783;BME280;10051;40.294;-3.754;2023-09-18T06:15:01;94289.47;;;17.09;95.81
19783;BME280;10051;40.294;-3.754;2023-09-18T06:17:30;94196.34;;;16.31;96.52
19783;BME280;10051;40.294;-3.754;2023-09-18T06:19:56;94298.69;;;16.94;97.32
19783;BME280;10051;40.294;-3.754;2023-09-18T06:22:22;94301.38;;;16.85;98.23
19783;BME280;10051;40.294;-3.754;2023-09-18T06:24:47;94280.59;;;16.70;98.28
19783;BME280;10051;40.294;-3.754;2023-09-18T06:27:13;94258.91;;;16.68;97.66
19783;BME280;10051;40.294;-3.754;2023-09-18T06:29:39;94273.59;;;16.65;98.79
19783;BME280;10051;40.294;-3.754;2023-09-18T06:32:05;94301.53;;;16.80;99.10
19783;BME280;10051;40.294;-3.754;2023-09-18T06:34:31;94279.66;;;16.65;99.81
19783;BME280;10051;40.294;-3.754;2023-09-18T06:36:57;94275.13;;;16.57;100.00
19783;BME280;10051;40.294;-3.754;2023-09-18T06:39:22;94285.91;;;16.70;99.41
19783;BME280;10051;40.294;-3.754;2023-09-18T06:41:49;94276.06;;;16.61;99.42
19783;BME280;10051;40.294;-3.754;2023-09-18T06:44:15;94306.97;;;16.92;98.54
19783;BME280;10051;40.294;-3.754;2023-09-18T06:46:40;94284.03;;;16.79;98.62
19783;BME280;10051;40.294;-3.754;2023-09-18T06:49:06;94230.97;;;16.44;99.09
19783;BME280;10051;40.294;-3.754;2023-09-18T06:51:32;94293.06;;;16.87;99.53
19783;BME280;10051;40.294;-3.754;2023-09-18T06:53:57;94276.38;;;16.69;99.04
19783;BME280;10051;40.294;-3.754;2023-09-18T06:56:24;94308.69;;;16.88;98.48
19783;BME280;10051;40.294;-3.754;2023-09-18T06:58:50;94303.56;;;16.83;99.16
19783;BME280;10051;40.294;-3.754;2023-09-18T07:01:17;94312.28;;;16.92;98.98
19783;BME280;10051;40.294;-3.754;2023-09-18T07:03:47;94306.03;;;17.06;97.51
19783;BME280;10051;40.294;-3.754;2023-09-18T07:06:14;94330.09;;;17.09;97.54
19783;BME280;10051;40.294;-3.754;2023-09-18T07:08:42;94314.16;;;17.01;97.13
19783;BME280;10051;40.294;-3.754;2023-09-18T07:11:08;94320.25;;;17.10;96.73
19783;BME280;10051;40.294;-3.754;2023-09-18T07:13:34;94331.16;;;17.26;95.91
19783;BME280;10051;40.294;-3.754;2023-09-18T07:15:59;94352.41;;;17.35;95.52
19783;BME280;10051;40.294;-3.754;2023-09-18T07:18:25;94325.72;;;17.14;96.67
19783;BME280;10051;40.294;-3.754;2023-09-18T07:20:51;94335.69;;;17.26;96.15
19783;BME280;10051;40.294;-3.754;2023-09-18T07:23:17;94348.50;;;17.32;95.11
19783;BME280;10051;40.294;-3.754;2023-09-18T07:25:42;94325.88;;;17.17;93.76
19783;BME280;10051;40.294;-3.754;2023-09-18T07:28:10;94336.28;;;17.40;93.03
19783;BME280;10051;40.294;-3.754;2023-09-18T07:30:41;94361.50;;;17.73;92.11
19783;BME280;10051;40.294;-3.754;2023-09-18T07:33:07;94358.94;;;17.85;91.05
19783;BME280;10051;40.294;-3.754;2023-09-18T07:35:32;94372.81;;;18.08;90.32
19783;BME280;10051;40.294;-3.754;2023-09-18T07:37:58;94375.97;;;18.32;89.33
19783;BME280;10051;40.294;-3.754;2023-09-18T07:40:24;94361.63;;;18.24;88.50
19783;BME280;10051;40.294;-3.754;2023-09-18T07:42:49;94359.72;;;18.24;88.91
19783;BME280;10051;40.294;-3.754;2023-09-18T07:45:15;94386.38;;;18.46;88.81
19783;BME280;10051;40.294;-3.754;2023-09-18T07:47:41;94333.91;;;18.25;88.12
19783;BME280;10051;40.294;-3.754;2023-09-18T07:50:06;94405.50;;;18.69;86.75
19783;BME280;10051;40.294;-3.754;2023-09-18T07:52:32;94381.06;;;18.67;85.92
19783;BME280;10051;40.294;-3.754;2023-09-18T07:54:58;94368.72;;;18.62;85.02
19783;BME280;10051;40.294;-3.754;2023-09-18T07:57:25;94358.38;;;18.61;85.07
19783;BME280;10051;40.294;-3.754;2023-09-18T07:59:53;94308.50;;;18.27;84.70
19783;BME280;10051;40.294;-3.754;2023-09-18T08:02:19;94415.41;;;19.11;84.75
19783;BME280;10051;40.294;-3.754;2023-09-18T08:04:44;94379.50;;;18.87;84.57
19783;BME280;10051;40.294;-3.754;2023-09-18T08:07:10;94388.25;;;18.96;83.88
19783;BME280;10051;40.294;-3.754;2023-09-18T08:09:37;94401.81;;;19.04;82.68
19783;BME280;10051;40.294;-3.754;2023-09-18T08:12:07;94389.91;;;18.80;83.70
19783;BME280;10051;40.294;-3.754;2023-09-18T08:14:34;94409.56;;;18.96;82.25
19783;BME280;10051;40.294;-3.754;2023-09-18T08:17:03;94425.41;;;18.93;82.26
19783;BME280;10051;40.294;-3.754;2023-09-18T08:19:30;94432.25;;;19.02;80.93
19783;BME280;10051;40.294;-3.754;2023-09-18T08:22:00;94430.88;;;18.96;81.47
19783;BME280;10051;40.294;-3.754;2023-09-18T08:24:26;94431.56;;;18.84;82.02
19783;BME280;10051;40.294;-3.754;2023-09-18T08:26:51;94428.38;;;18.91;81.56
19783;BME280;10051;40.294;-3.754;2023-09-18T08:29:18;94386.75;;;18.56;82.30
19783;BME280;10051;40.294;-3.754;2023-09-18T08:31:44;94441.66;;;19.00;82.24
19783;BME280;10051;40.294;-3.754;2023-09-18T08:34:09;94435.56;;;18.99;81.90
19783;BME280;10051;40.294;-3.754;2023-09-18T08:36:35;94416.03;;;18.86;81.43
19783;BME280;10051;40.294;-3.754;2023-09-18T08:39:01;94411.19;;;18.80;81.10
19783;BME280;10051;40.294;-3.754;2023-09-18T08:41:29;94454.59;;;19.10;81.22
19783;BME280;10051;40.294;-3.754;2023-09-18T08:43:59;94418.50;;;18.92;80.69
19783;BME280;10051;40.294;-3.754;2023-09-18T08:46:25;94441.22;;;18.89;80.49
19783;BME280;10051;40.294;-3.754;2023-09-18T08:48:51;94451.75;;;18.85;80.63
19783;BME280;10051;40.294;-3.754;2023-09-18T08:51:18;94462.66;;;19.01;81.29
19783;BME280;10051;40.294;-3.754;2023-09-18T08:53:44;94394.34;;;18.76;80.59
19783;BME280;10051;40.294;-3.754;2023-09-18T08:56:12;94447.97;;;19.16;79.83
19783;BME280;10051;40.294;-3.754;2023-09-18T08:58:39;94465.44;;;19.26;79.35
19783;BME280;10051;40.294;-3.754;2023-09-18T09:01:08;94463.28;;;19.41;78.82
19783;BME280;10051;40.294;-3.754;2023-09-18T09:03:38;94466.00;;;19.53;78.00
19783;BME280;10051;40.294;-3.754;2023-09-18T09:06:06;94476.94;;;19.73;77.33
19783;BME280;10051;40.294;-3.754;2023-09-18T09:08:32;94455.50;;;19.69;76.50
19783;BME280;10051;40.294;-3.754;2023-09-18T09:10:58;94452.78;;;19.90;75.06
19783;BME280;10051;40.294;-3.754;2023-09-18T09:13:24;94449.47;;;19.94;73.54
19783;BME280;10051;40.294;-3.754;2023-09-18T09:15:54;94485.84;;;20.11;73.59
19783;BME280;10051;40.294;-3.754;2023-09-18T09:18:24;94453.47;;;20.00;72.17
19783;BME280;10051;40.294;-3.754;2023-09-18T09:20:57;94489.28;;;20.11;73.97
19783;BME280;10051;40.294;-3.754;2023-09-18T09:23:29;94450.38;;;19.98;75.19
19783;BME280;10051;40.294;-3.754;2023-09-18T09:26:16;94482.91;;;20.49;74.99
19783;BME280;10051;40.294;-3.754;2023-09-18T09:28:43;94505.13;;;20.66;72.69
19783;BME280;10051;40.294;-3.754;2023-09-18T09:31:09;94467.75;;;20.54;72.43
19783;BME280;10051;40.294;-3.754;2023-09-18T09:33:50;94500.72;;;20.83;72.57
19783;BME280;10051;40.294;-3.754;2023-09-18T09:36:16;94507.19;;;20.82;72.40
19783;BME280;10051;40.294;-3.754;2023-09-18T09:38:42;94513.81;;;20.75;71.98
19783;BME280;10051;40.294;-3.754;2023-09-18T09:41:13;94462.28;;;20.38;71.73
19783;BME280;10051;40.294;-3.754;2023-09-18T09:43:41;94499.25;;;20.60;72.72
19783;BME280;10051;40.294;-3.754;2023-09-18T09:46:15;94503.34;;;20.58;73.63
19783;BME280;10051;40.294;-3.754;2023-09-18T09:49:00;94501.56;;;20.62;72.35
19783;BME280;10051;40.294;-3.754;2023-09-18T09:51:27;94459.63;;;20.25;72.35
19783;BME280;10051;40.294;-3.754;2023-09-18T09:53:53;94507.94;;;20.57;73.12
19783;BME280;10051;40.294;-3.754;2023-09-18T09:56:19;94511.81;;;20.72;72.86
19783;BME280;10051;40.294;-3.754;2023-09-18T09:59:03;94506.50;;;20.85;72.79
19783;BME280;10051;40.294;-3.754;2023-09-18T10:01:37;94504.28;;;20.87;72.63
19783;BME280;10051;40.294;-3.754;2023-09-18T10:04:05;94513.19;;;20.91;72.64
19783;BME280;10051;40.294;-3.754;2023-09-18T10:06:34;94513.06;;;21.00;71.68
19783;BME280;10051;40.294;-3.754;2023-09-18T10:09:02;94456.84;;;20.46;71.98
19783;BME280;10051;40.294;-3.754;2023-09-18T10:11:30;94509.19;;;20.85;72.30
19783;BME280;10051;40.294;-3.754;2023-09-18T10:14:04;94500.69;;;20.70;70.94
19783;BME280;10051;40.294;-3.754;2023-09-18T10:16:35;94522.84;;;20.95;71.57
19783;BME280;10051;40.294;-3.754;2023-09-18T10:22:06;94518.84;;;21.02;71.80
19783;BME280;10051;40.294;-3.754;2023-09-18T10:24:37;94517.81;;;21.06;72.19
19783;BME280;10051;40.294;-3.754;2023-09-18T10:27:04;94498.94;;;20.87;70.53
19783;BME280;10051;40.294;-3.754;2023-09-18T10:29:33;94514.09;;;20.83;71.26
19783;BME280;10051;40.294;-3.754;2023-09-18T10:32:06;94511.41;;;20.83;71.89
19783;BME280;10051;40.294;-3.754;2023-09-18T10:34:35;94505.63;;;20.80;70.46
19783;BME280;10051;40.294;-3.754;2023-09-18T10:37:03;94504.25;;;20.74;71.06
19783;BME280;10051;40.294;-3.754;2023-09-18T10:39:35;94471.41;;;20.49;71.05
19783;BME280;10051;40.294;-3.754;2023-09-18T10:42:02;94498.03;;;20.70;70.00
19783;BME280;10051;40.294;-3.754;2023-09-18T10:44:29;94513.97;;;20.79;70.36
19783;BME280;10051;40.294;-3.754;2023-09-18T10:46:57;94480.88;;;20.59;69.98
19783;BME280;10051;40.294;-3.754;2023-09-18T10:49:24;94486.66;;;20.61;69.56
19783;BME280;10051;40.294;-3.754;2023-09-18T10:51:53;94485.91;;;20.60;70.80
19783;BME280;10051;40.294;-3.754;2023-09-18T10:54:26;94516.53;;;20.88;70.70
19783;BME280;10051;40.294;-3.754;2023-09-18T10:56:52;94478.31;;;20.62;70.09
19783;BME280;10051;40.294;-3.754;2023-09-18T10:59:19;94503.13;;;20.75;70.14
19783;BME280;10051;40.294;-3.754;2023-09-18T11:01:46;94484.56;;;20.67;69.08
19783;BME280;10051;40.294;-3.754;2023-09-18T11:04:13;94504.94;;;20.84;69.27
19783;BME280;10051;40.294;-3.754;2023-09-18T11:17:39;94502.63;;;21.35;69.94
19783;BME280;10051;40.294;-3.754;2023-09-18T11:20:23;94500.34;;;21.50;67.87
19783;BME280;10051;40.294;-3.754;2023-09-18T11:23:09;94496.69;;;21.42;67.82
19783;BME280;10051;40.294;-3.754;2023-09-18T11:25:43;94477.25;;;21.29;68.57
19783;BME280;10051;40.294;-3.754;2023-09-18T11:28:16;94457.66;;;21.13;68.07
19783;BME280;10051;40.294;-3.754;2023-09-18T11:30:50;94497.28;;;21.35;67.05
19783;BME280;10051;40.294;-3.754;2023-09-18T11:33:39;94491.38;;;21.30;67.89
19783;BME280;10051;40.294;-3.754;2023-09-18T11:36:11;94463.81;;;21.13;68.18
19783;BME280;10051;40.294;-3.754;2023-09-18T11:38:55;94453.59;;;21.03;69.12
19783;BME280;10051;40.294;-3.754;2023-09-18T11:41:26;94444.91;;;20.93;68.11
19783;BME280;10051;40.294;-3.754;2023-09-18T11:46:39;94479.19;;;21.04;68.21
19783;BME280;10051;40.294;-3.754;2023-09-18T11:49:09;94449.28;;;20.86;69.08
19783;BME280;10051;40.294;-3.754;2023-09-18T11:51:36;94489.06;;;21.16;69.37
19783;BME280;10051;40.294;-3.754;2023-09-18T11:54:03;94486.84;;;21.18;69.15
19783;BME280;10051;40.294;-3.754;2023-09-18T11:56:32;94480.03;;;21.20;68.44
19783;BME280;10051;40.294;-3.754;2023-09-18T11:58:58;94450.75;;;21.12;68.48
19783;BME280;10051;40.294;-3.754;2023-09-18T12:01:25;94476.19;;;21.46;67.46
19783;BME280;10051;40.294;-3.754;2023-09-18T12:03:59;94478.00;;;21.58;65.82
19783;BME280;10051;40.294;-3.754;2023-09-18T12:06:25;94485.53;;;21.52;66.84
19783;BME280;10051;40.294;-3.754;2023-09-18T12:08:54;94469.94;;;21.42;66.05
19783;BME280;10051;40.294;-3.754;2023-09-18T12:11:22;94459.84;;;21.35;67.38
19783;BME280;10051;40.294;-3.754;2023-09-18T12:13:51;94468.69;;;21.52;67.48
19783;BME280;10051;40.294;-3.754;2023-09-18T12:16:16;94466.56;;;21.58;66.54
19783;BME280;10051;40.294;-3.754;2023-09-18T12:18:46;94455.06;;;21.57;65.40
19783;BME280;10051;40.294;-3.754;2023-09-18T12:21:14;94477.50;;;21.81;66.48
19783;BME280;10051;40.294;-3.754;2023-09-18T12:23:41;94447.44;;;21.72;64.60
19783;BME280;10051;40.294;-3.754;2023-09-18T12:26:12;94443.09;;;21.67;65.12
19783;BME280;10051;40.294;-3.754;2023-09-18T12:28:44;94473.03;;;21.85;64.54
19783;BME280;10051;40.294;-3.754;2023-09-18T12:31:11;94450.13;;;21.72;64.76
19783;BME280;10051;40.294;-3.754;2023-09-18T12:33:38;94458.41;;;21.82;65.25
19783;BME280;10051;40.294;-3.754;2023-09-18T12:36:05;94462.72;;;21.87;63.38
19783;BME280;10051;40.294;-3.754;2023-09-18T12:38:31;94432.78;;;21.53;64.51
19783;BME280;10051;40.294;-3.754;2023-09-18T12:41:01;94425.69;;;21.45;65.52
19783;BME280;10051;40.294;-3.754;2023-09-18T12:43:39;94407.22;;;21.39;67.22
19783;BME280;10051;40.294;-3.754;2023-09-18T12:46:07;94433.44;;;21.62;67.16
19783;BME280;10051;40.294;-3.754;2023-09-18T12:48:37;94463.53;;;21.88;66.57
19783;BME280;10051;40.294;-3.754;2023-09-18T12:51:04;94462.91;;;21.94;66.04
19783;BME280;10051;40.294;-3.754;2023-09-18T12:53:31;94445.72;;;21.79;66.10
19783;BME280;10051;40.294;-3.754;2023-09-18T12:56:10;94410.94;;;21.51;66.56
19783;BME280;10051;40.294;-3.754;2023-09-18T12:58:38;94438.63;;;21.71;66.73
19783;BME280;10051;40.294;-3.754;2023-09-18T13:01:05;94431.97;;;21.65;67.02
19783;BME280;10051;40.294;-3.754;2023-09-18T13:03:40;94421.75;;;21.54;66.78
19783;BME280;10051;40.294;-3.754;2023-09-18T13:06:11;94432.31;;;21.63;67.11
19783;BME280;10051;40.294;-3.754;2023-09-18T13:08:38;94406.63;;;21.46;66.89
19783;BME280;10051;40.294;-3.754;2023-09-18T13:11:03;94428.75;;;21.59;66.33